sensor_id;sensor_type;location;lat;lon;timestamp;P1;durP1;ratioP1;P2;durP2;ratioP2
5491;SDS011;2768;53.540;10.224;2023-05-07T00:03:07;9.33;;;8.43;;
5491;SDS011;2768;53.540;10.224;2023-05-07T00:09:00;12.00;;;9.10;;
5491;SDS011;2768;53.540;10.224;2023-05-07T00:14:55;10.80;;;9.03;;
5491;SDS011;2768;53.540;10.224;2023-05-07T00:20:48;10.20;;;9.20;;
5491;SDS011;2768;53.540;10.224;2023-05-07T00:26:41;10.77;;;9.00;;
5491;SDS011;2768;53.540;10.224;2023-05-07T00:32:36;10.17;;;9.17;;
5491;SDS011;2768;53.540;10.224;2023-05-07T00:38:29;10.70;;;9.60;;
5491;SDS011;2768;53.540;10.224;2023-05-07T00:44:22;9.77;;;8.77;;
5491;SDS011;2768;53.540;10.224;2023-05-07T00:50:18;10.40;;;9.40;;
5491;SDS011;2768;53.540;10.224;2023-05-07T00:56:11;10.20;;;9.03;;
5491;SDS011;2768;53.540;10.224;2023-05-07T01:02:04;8.53;;;7.73;;
5491;SDS011;2768;53.540;10.224;2023-05-07T01:07:59;9.10;;;7.90;;
5491;SDS011;2768;53.540;10.224;2023-05-07T01:13:54;9.83;;;8.83;;
5491;SDS011;2768;53.540;10.224;2023-05-07T01:19:49;9.40;;;8.40;;
5491;SDS011;2768;53.540;10.224;2023-05-07T01:25:51;10.37;;;9.00;;
5491;SDS011;2768;53.540;10.224;2023-05-07T01:31:47;9.63;;;8.60;;
5491;SDS011;2768;53.540;10.224;2023-05-07T01:37:43;9.17;;;8.30;;
5491;SDS011;2768;53.540;10.224;2023-05-07T01:43:41;9.20;;;8.30;;
5491;SDS011;2768;53.540;10.224;2023-05-07T01:49:35;8.43;;;7.67;;
5491;SDS011;2768;53.540;10.224;2023-05-07T01:55:28;8.70;;;7.70;;
5491;SDS011;2768;53.540;10.224;2023-05-07T02:01:24;8.17;;;7.37;;
5491;SDS011;2768;53.540;10.224;2023-05-07T02:07:17;8.60;;;7.53;;
5491;SDS011;2768;53.540;10.224;2023-05-07T02:13:11;8.77;;;6.80;;
5491;SDS011;2768;53.540;10.224;2023-05-07T02:19:06;9.20;;;7.53;;
5491;SDS011;2768;53.540;10.224;2023-05-07T02:25:00;8.60;;;7.80;;
5491;SDS011;2768;53.540;10.224;2023-05-07T02:30:53;9.00;;;8.10;;
5491;SDS011;2768;53.540;10.224;2023-05-07T02:36:48;11.07;;;8.07;;
5491;SDS011;2768;53.540;10.224;2023-05-07T02:42:46;9.97;;;7.90;;
5491;SDS011;2768;53.540;10.224;2023-05-07T02:48:39;9.23;;;8.20;;
5491;SDS011;2768;53.540;10.224;2023-05-07T02:54:34;10.93;;;8.13;;
5491;SDS011;2768;53.540;10.224;2023-05-07T03:00:28;10.37;;;8.37;;
5491;SDS011;2768;53.540;10.224;2023-05-07T03:06:41;10.70;;;8.93;;
5491;SDS011;2768;53.540;10.224;2023-05-07T03:12:36;10.07;;;8.07;;
5491;SDS011;2768;53.540;10.224;2023-05-07T03:18:30;8.87;;;8.00;;
5491;SDS011;2768;53.540;10.224;2023-05-07T03:24:23;9.20;;;8.30;;
5491;SDS011;2768;53.540;10.224;2023-05-07T03:30:18;9.07;;;8.10;;
5491;SDS011;2768;53.540;10.224;2023-05-07T03:36:12;8.80;;;7.37;;
5491;SDS011;2768;53.540;10.224;2023-05-07T03:42:06;9.27;;;8.30;;
5491;SDS011;2768;53.540;10.224;2023-05-07T03:48:01;9.17;;;8.27;;
5491;SDS011;2768;53.540;10.224;2023-05-07T03:53:55;8.13;;;7.43;;
5491;SDS011;2768;53.540;10.224;2023-05-07T03:59:51;7.40;;;6.60;;
5491;SDS011;2768;53.540;10.224;2023-05-07T04:05:46;8.93;;;8.03;;
5491;SDS011;2768;53.540;10.224;2023-05-07T04:11:39;9.30;;;8.13;;
5491;SDS011;2768;53.540;10.224;2023-05-07T04:17:34;8.53;;;7.67;;
5491;SDS011;2768;53.540;10.224;2023-05-07T04:23:30;14.10;;;7.67;;
5491;SDS011;2768;53.540;10.224;2023-05-07T04:29:26;10.00;;;7.80;;
5491;SDS011;2768;53.540;10.224;2023-05-07T04:35:20;9.40;;;8.40;;
5491;SDS011;2768;53.540;10.224;2023-05-07T04:41:15;8.60;;;7.13;;
5491;SDS011;2768;53.540;10.224;2023-05-07T04:47:09;9.40;;;8.50;;
5491;SDS011;2768;53.540;10.224;2023-05-07T04:53:02;10.10;;;7.60;;
5491;SDS011;2768;53.540;10.224;2023-05-07T04:58:57;8.23;;;7.40;;
5491;SDS011;2768;53.540;10.224;2023-05-07T05:04:51;7.70;;;6.93;;
5491;SDS011;2768;53.540;10.224;2023-05-07T05:10:44;8.03;;;7.23;;
5491;SDS011;2768;53.540;10.224;2023-05-07T05:16:41;8.60;;;7.70;;
5491;SDS011;2768;53.540;10.224;2023-05-07T05:22:35;8.00;;;7.30;;
5491;SDS011;2768;53.540;10.224;2023-05-07T05:28:29;8.87;;;7.13;;
5491;SDS011;2768;53.540;10.224;2023-05-07T05:34:24;7.70;;;7.00;;
5491;SDS011;2768;53.540;10.224;2023-05-07T05:40:17;7.50;;;6.80;;
5491;SDS011;2768;53.540;10.224;2023-05-07T05:46:11;8.87;;;7.97;;
5491;SDS011;2768;53.540;10.224;2023-05-07T05:52:06;7.53;;;6.83;;
5491;SDS011;2768;53.540;10.224;2023-05-07T05:58:01;8.63;;;7.83;;
5491;SDS011;2768;53.540;10.224;2023-05-07T06:03:59;9.13;;;7.73;;
5491;SDS011;2768;53.540;10.224;2023-05-07T06:09:54;9.97;;;7.20;;
5491;SDS011;2768;53.540;10.224;2023-05-07T06:15:48;7.70;;;6.30;;
5491;SDS011;2768;53.540;10.224;2023-05-07T06:21:41;7.30;;;6.70;;
5491;SDS011;2768;53.540;10.224;2023-05-07T06:27:36;7.73;;;7.00;;
5491;SDS011;2768;53.540;10.224;2023-05-07T06:33:32;7.43;;;6.73;;
5491;SDS011;2768;53.540;10.224;2023-05-07T06:39:27;6.47;;;5.97;;
5491;SDS011;2768;53.540;10.224;2023-05-07T06:45:21;7.40;;;6.70;;
5491;SDS011;2768;53.540;10.224;2023-05-07T06:51:17;6.87;;;6.27;;
5491;SDS011;2768;53.540;10.224;2023-05-07T06:57:11;7.37;;;6.40;;
5491;SDS011;2768;53.540;10.224;2023-05-07T07:03:06;6.10;;;5.50;;
5491;SDS011;2768;53.540;10.224;2023-05-07T07:09:00;6.30;;;5.70;;
5491;SDS011;2768;53.540;10.224;2023-05-07T07:14:54;6.57;;;5.97;;
5491;SDS011;2768;53.540;10.224;2023-05-07T07:20:50;6.67;;;5.73;;
5491;SDS011;2768;53.540;10.224;2023-05-07T07:26:43;6.33;;;5.10;;
5491;SDS011;2768;53.540;10.224;2023-05-07T07:32:37;6.47;;;5.87;;
5491;SDS011;2768;53.540;10.224;2023-05-07T07:38:32;7.47;;;6.13;;
5491;SDS011;2768;53.540;10.224;2023-05-07T07:44:25;6.03;;;5.43;;
5491;SDS011;2768;53.540;10.224;2023-05-07T07:50:23;7.30;;;6.60;;
5491;SDS011;2768;53.540;10.224;2023-05-07T07:56:24;6.40;;;5.90;;
5491;SDS011;2768;53.540;10.224;2023-05-07T08:02:18;6.33;;;5.77;;
5491;SDS011;2768;53.540;10.224;2023-05-07T08:08:13;7.00;;;6.40;;
5491;SDS011;2768;53.540;10.224;2023-05-07T08:14:09;6.07;;;5.57;;
5491;SDS011;2768;53.540;10.224;2023-05-07T08:20:03;5.80;;;5.30;;
5491;SDS011;2768;53.540;10.224;2023-05-07T08:25:57;5.97;;;5.50;;
5491;SDS011;2768;53.540;10.224;2023-05-07T08:31:52;7.60;;;5.30;;
5491;SDS011;2768;53.540;10.224;2023-05-07T08:37:46;5.83;;;5.33;;
5491;SDS011;2768;53.540;10.224;2023-05-07T08:43:42;5.93;;;5.20;;
5491;SDS011;2768;53.540;10.224;2023-05-07T08:49:42;6.57;;;5.87;;
5491;SDS011;2768;53.540;10.224;2023-05-07T08:55:37;5.57;;;5.07;;
5491;SDS011;2768;53.540;10.224;2023-05-07T09:01:31;5.47;;;4.97;;
5491;SDS011;2768;53.540;10.224;2023-05-07T09:07:28;6.03;;;5.43;;
5491;SDS011;2768;53.540;10.224;2023-05-07T09:13:23;5.13;;;4.70;;
5491;SDS011;2768;53.540;10.224;2023-05-07T09:19:21;5.00;;;4.53;;
5491;SDS011;2768;53.540;10.224;2023-05-07T09:25:18;4.70;;;4.30;;
5491;SDS011;2768;53.540;10.224;2023-05-07T09:31:21;4.63;;;4.30;;
5491;SDS011;2768;53.540;10.224;2023-05-07T09:37:18;4.27;;;3.97;;
5491;SDS011;2768;53.540;10.224;2023-05-07T09:43:14;5.07;;;3.80;;
5491;SDS011;2768;53.540;10.224;2023-05-07T09:49:18;4.73;;;4.43;;
5491;SDS011;2768;53.540;10.224;2023-05-07T09:55:18;4.03;;;3.63;;
5491;SDS011;2768;53.540;10.224;2023-05-07T10:01:13;4.60;;;4.20;;
5491;SDS011;2768;53.540;10.224;2023-05-07T10:07:10;4.80;;;4.40;;
5491;SDS011;2768;53.540;10.224;2023-05-07T10:13:04;4.77;;;4.33;;
5491;SDS011;2768;53.540;10.224;2023-05-07T10:19:06;4.90;;;4.50;;
5491;SDS011;2768;53.540;10.224;2023-05-07T10:25:02;4.73;;;4.10;;
5491;SDS011;2768;53.540;10.224;2023-05-07T10:31:03;5.23;;;4.73;;
5491;SDS011;2768;53.540;10.224;2023-05-07T10:37:11;5.00;;;4.60;;
5491;SDS011;2768;53.540;10.224;2023-05-07T10:43:05;5.70;;;4.37;;
5491;SDS011;2768;53.540;10.224;2023-05-07T10:49:10;3.90;;;3.60;;
5491;SDS011;2768;53.540;10.224;2023-05-07T10:55:25;3.67;;;3.37;;
5491;SDS011;2768;53.540;10.224;2023-05-07T11:01:49;4.53;;;4.00;;
5491;SDS011;2768;53.540;10.224;2023-05-07T11:07:53;3.20;;;3.00;;
5491;SDS011;2768;53.540;10.224;2023-05-07T11:13:54;3.03;;;2.83;;
5491;SDS011;2768;53.540;10.224;2023-05-07T11:19:55;3.40;;;3.10;;
5491;SDS011;2768;53.540;10.224;2023-05-07T11:26:07;3.33;;;3.13;;
5491;SDS011;2768;53.540;10.224;2023-05-07T11:32:03;3.10;;;2.90;;
5491;SDS011;2768;53.540;10.224;2023-05-07T11:38:07;3.43;;;3.23;;
5491;SDS011;2768;53.540;10.224;2023-05-07T11:44:00;3.20;;;3.00;;
5491;SDS011;2768;53.540;10.224;2023-05-07T11:49:55;3.67;;;3.20;;
5491;SDS011;2768;53.540;10.224;2023-05-07T11:55:51;3.17;;;2.97;;
5491;SDS011;2768;53.540;10.224;2023-05-07T12:01:47;3.00;;;2.67;;
5491;SDS011;2768;53.540;10.224;2023-05-07T12:07:42;2.20;;;2.10;;
5491;SDS011;2768;53.540;10.224;2023-05-07T12:13:35;2.60;;;2.40;;
5491;SDS011;2768;53.540;10.224;2023-05-07T12:19:28;2.60;;;2.40;;
5491;SDS011;2768;53.540;10.224;2023-05-07T12:25:24;2.20;;;2.00;;
5491;SDS011;2768;53.540;10.224;2023-05-07T12:31:17;2.47;;;2.37;;
5491;SDS011;2768;53.540;10.224;2023-05-07T12:37:11;2.67;;;2.40;;
5491;SDS011;2768;53.540;10.224;2023-05-07T12:43:06;2.33;;;2.23;;
5491;SDS011;2768;53.540;10.224;2023-05-07T12:49:00;1.70;;;1.60;;
5491;SDS011;2768;53.540;10.224;2023-05-07T12:54:53;2.20;;;2.10;;
5491;SDS011;2768;53.540;10.224;2023-05-07T13:00:49;2.17;;;2.07;;
5491;SDS011;2768;53.540;10.224;2023-05-07T13:06:43;1.93;;;1.83;;
5491;SDS011;2768;53.540;10.224;2023-05-07T13:12:36;1.97;;;1.87;;
5491;SDS011;2768;53.540;10.224;2023-05-07T13:18:31;2.63;;;2.43;;
5491;SDS011;2768;53.540;10.224;2023-05-07T13:24:25;1.97;;;1.77;;
5491;SDS011;2768;53.540;10.224;2023-05-07T13:30:18;2.43;;;2.23;;
5491;SDS011;2768;53.540;10.224;2023-05-07T13:36:12;2.30;;;1.93;;
5491;SDS011;2768;53.540;10.224;2023-05-07T13:42:06;2.37;;;2.17;;
5491;SDS011;2768;53.540;10.224;2023-05-07T13:47:59;2.50;;;1.83;;
5491;SDS011;2768;53.540;10.224;2023-05-07T13:53:54;2.57;;;1.67;;
5491;SDS011;2768;53.540;10.224;2023-05-07T13:59:47;2.60;;;1.93;;
5491;SDS011;2768;53.540;10.224;2023-05-07T14:05:40;2.27;;;1.90;;
5491;SDS011;2768;53.540;10.224;2023-05-07T14:11:34;2.23;;;2.13;;
5491;SDS011;2768;53.540;10.224;2023-05-07T14:17:28;1.83;;;1.63;;
5491;SDS011;2768;53.540;10.224;2023-05-07T14:23:21;1.37;;;1.37;;
5491;SDS011;2768;53.540;10.224;2023-05-07T14:29:19;3.00;;;2.07;;
5491;SDS011;2768;53.540;10.224;2023-05-07T14:35:14;2.03;;;1.90;;
5491;SDS011;2768;53.540;10.224;2023-05-07T14:41:08;1.80;;;1.67;;
5491;SDS011;2768;53.540;10.224;2023-05-07T14:47:02;1.97;;;1.87;;
5491;SDS011;2768;53.540;10.224;2023-05-07T14:52:55;1.90;;;1.60;;
5491;SDS011;2768;53.540;10.224;2023-05-07T14:58:49;2.27;;;1.67;;
5491;SDS011;2768;53.540;10.224;2023-05-07T15:04:44;4.10;;;2.47;;
5491;SDS011;2768;53.540;10.224;2023-05-07T15:10:38;1.83;;;1.73;;
5491;SDS011;2768;53.540;10.224;2023-05-07T15:16:32;2.30;;;2.20;;
5491;SDS011;2768;53.540;10.224;2023-05-07T15:22:28;1.80;;;1.70;;
5491;SDS011;2768;53.540;10.224;2023-05-07T15:28:22;2.90;;;2.23;;
5491;SDS011;2768;53.540;10.224;2023-05-07T15:34:18;1.90;;;1.80;;
5491;SDS011;2768;53.540;10.224;2023-05-07T15:40:14;2.70;;;2.10;;
5491;SDS011;2768;53.540;10.224;2023-05-07T15:46:07;2.40;;;1.87;;
5491;SDS011;2768;53.540;10.224;2023-05-07T15:52:00;3.97;;;2.53;;
5491;SDS011;2768;53.540;10.224;2023-05-07T15:57:55;1.80;;;1.70;;
5491;SDS011;2768;53.540;10.224;2023-05-07T16:03:48;2.20;;;2.00;;
5491;SDS011;2768;53.540;10.224;2023-05-07T16:09:42;2.80;;;1.63;;
5491;SDS011;2768;53.540;10.224;2023-05-07T16:15:36;2.23;;;2.00;;
5491;SDS011;2768;53.540;10.224;2023-05-07T16:21:30;1.67;;;1.57;;
5491;SDS011;2768;53.540;10.224;2023-05-07T16:27:25;2.87;;;1.83;;
5491;SDS011;2768;53.540;10.224;2023-05-07T16:33:20;2.40;;;2.20;;
5491;SDS011;2768;53.540;10.224;2023-05-07T16:39:13;3.70;;;3.40;;
5491;SDS011;2768;53.540;10.224;2023-05-07T16:45:07;2.43;;;2.23;;
5491;SDS011;2768;53.540;10.224;2023-05-07T16:51:02;3.83;;;3.50;;
5491;SDS011;2768;53.540;10.224;2023-05-07T16:56:57;2.10;;;1.90;;
5491;SDS011;2768;53.540;10.224;2023-05-07T17:02:51;2.20;;;2.07;;
5491;SDS011;2768;53.540;10.224;2023-05-07T17:08:46;2.00;;;1.90;;
5491;SDS011;2768;53.540;10.224;2023-05-07T17:14:39;1.77;;;1.67;;
5491;SDS011;2768;53.540;10.224;2023-05-07T17:20:33;2.50;;;2.20;;
5491;SDS011;2768;53.540;10.224;2023-05-07T17:26:27;1.73;;;1.63;;
5491;SDS011;2768;53.540;10.224;2023-05-07T17:32:22;3.53;;;2.00;;
5491;SDS011;2768;53.540;10.224;2023-05-07T17:38:15;3.43;;;1.97;;
5491;SDS011;2768;53.540;10.224;2023-05-07T17:44:10;3.00;;;2.20;;
5491;SDS011;2768;53.540;10.224;2023-05-07T17:50:03;1.90;;;1.80;;
5491;SDS011;2768;53.540;10.224;2023-05-07T17:56:01;2.60;;;2.40;;
5491;SDS011;2768;53.540;10.224;2023-05-07T18:01:56;2.43;;;2.20;;
5491;SDS011;2768;53.540;10.224;2023-05-07T18:07:49;2.67;;;2.47;;
5491;SDS011;2768;53.540;10.224;2023-05-07T18:13:42;2.20;;;2.00;;
5491;SDS011;2768;53.540;10.224;2023-05-07T18:19:37;11.23;;;2.40;;
5491;SDS011;2768;53.540;10.224;2023-05-07T18:25:31;2.30;;;2.17;;
5491;SDS011;2768;53.540;10.224;2023-05-07T18:31:24;2.23;;;2.13;;
5491;SDS011;2768;53.540;10.224;2023-05-07T18:37:19;2.10;;;2.00;;
5491;SDS011;2768;53.540;10.224;2023-05-07T18:43:17;5.60;;;2.40;;
5491;SDS011;2768;53.540;10.224;2023-05-07T18:49:11;2.40;;;1.90;;
5491;SDS011;2768;53.540;10.224;2023-05-07T18:55:06;2.67;;;2.47;;
5491;SDS011;2768;53.540;10.224;2023-05-07T19:01:01;2.63;;;2.43;;
5491;SDS011;2768;53.540;10.224;2023-05-07T19:06:58;3.40;;;2.33;;
5491;SDS011;2768;53.540;10.224;2023-05-07T19:12:53;2.27;;;2.07;;
5491;SDS011;2768;53.540;10.224;2023-05-07T19:18:48;2.03;;;1.93;;
5491;SDS011;2768;53.540;10.224;2023-05-07T19:24:41;2.00;;;1.90;;
5491;SDS011;2768;53.540;10.224;2023-05-07T19:30:37;2.80;;;2.20;;
5491;SDS011;2768;53.540;10.224;2023-05-07T19:36:31;1.90;;;1.80;;
5491;SDS011;2768;53.540;10.224;2023-05-07T19:42:24;2.10;;;1.97;;
5491;SDS011;2768;53.540;10.224;2023-05-07T19:48:19;3.43;;;3.10;;
5491;SDS011;2768;53.540;10.224;2023-05-07T19:54:12;2.60;;;2.40;;
5491;SDS011;2768;53.540;10.224;2023-05-07T20:00:06;2.33;;;2.17;;
5491;SDS011;2768;53.540;10.224;2023-05-07T20:06:07;2.70;;;2.50;;
5491;SDS011;2768;53.540;10.224;2023-05-07T20:12:00;2.60;;;2.40;;
5491;SDS011;2768;53.540;10.224;2023-05-07T20:17:53;4.03;;;3.63;;
5491;SDS011;2768;53.540;10.224;2023-05-07T20:23:48;2.80;;;2.30;;
5491;SDS011;2768;53.540;10.224;2023-05-07T20:29:42;2.50;;;2.10;;
5491;SDS011;2768;53.540;10.224;2023-05-07T20:35:36;2.37;;;2.23;;
5491;SDS011;2768;53.540;10.224;2023-05-07T20:41:30;2.57;;;2.40;;
5491;SDS011;2768;53.540;10.224;2023-05-07T20:47:23;3.43;;;2.37;;
5491;SDS011;2768;53.540;10.224;2023-05-07T20:53:18;3.17;;;2.20;;
5491;SDS011;2768;53.540;10.224;2023-05-07T20:59:12;2.20;;;2.00;;
5491;SDS011;2768;53.540;10.224;2023-05-07T21:05:07;2.53;;;2.20;;
5491;SDS011;2768;53.540;10.224;2023-05-07T21:11:01;2.70;;;2.50;;
5491;SDS011;2768;53.540;10.224;2023-05-07T21:16:55;2.73;;;2.53;;
5491;SDS011;2768;53.540;10.224;2023-05-07T21:22:50;2.40;;;1.97;;
5491;SDS011;2768;53.540;10.224;2023-05-07T21:28:43;4.93;;;2.10;;
5491;SDS011;2768;53.540;10.224;2023-05-07T21:34:38;2.30;;;2.07;;
5491;SDS011;2768;53.540;10.224;2023-05-07T21:40:32;2.90;;;2.63;;
5491;SDS011;2768;53.540;10.224;2023-05-07T21:46:25;2.13;;;2.03;;
5491;SDS011;2768;53.540;10.224;2023-05-07T21:52:20;2.50;;;2.40;;
5491;SDS011;2768;53.540;10.224;2023-05-07T21:58:16;2.87;;;2.40;;
5491;SDS011;2768;53.540;10.224;2023-05-07T22:04:09;3.47;;;2.60;;
5491;SDS011;2768;53.540;10.224;2023-05-07T22:10:05;2.80;;;2.40;;
5491;SDS011;2768;53.540;10.224;2023-05-07T22:15:59;2.20;;;2.10;;
5491;SDS011;2768;53.540;10.224;2023-05-07T22:21:52;2.73;;;2.50;;
5491;SDS011;2768;53.540;10.224;2023-05-07T22:27:47;2.90;;;2.70;;
5491;SDS011;2768;53.540;10.224;2023-05-07T22:33:41;4.13;;;2.27;;
5491;SDS011;2768;53.540;10.224;2023-05-07T22:39:34;2.93;;;2.73;;
5491;SDS011;2768;53.540;10.224;2023-05-07T22:45:29;2.50;;;2.30;;
5491;SDS011;2768;53.540;10.224;2023-05-07T22:51:22;3.23;;;2.20;;
5491;SDS011;2768;53.540;10.224;2023-05-07T22:57:16;2.50;;;2.30;;
5491;SDS011;2768;53.540;10.224;2023-05-07T23:23:13;2.47;;;2.27;;
5491;SDS011;2768;53.540;10.224;2023-05-07T23:29:07;2.00;;;1.90;;
5491;SDS011;2768;53.540;10.224;2023-05-07T23:35:00;2.77;;;2.60;;
5491;SDS011;2768;53.540;10.224;2023-05-07T23:40:55;2.43;;;2.33;;
5491;SDS011;2768;53.540;10.224;2023-05-07T23:46:48;2.67;;;2.53;;
5491;SDS011;2768;53.540;10.224;2023-05-07T23:52:41;2.87;;;2.67;;
5491;SDS011;2768;53.540;10.224;2023-05-07T23:58:36;2.47;;;2.37;;
